Time;durP1;ratioP1;P1;durP2;ratioP2;P2;SDS_P1;SDS_P2;PMS_P1;PMS_P2;Temp;Humidity;BMP_temperature;BMP_pressure;BME280_temperature;BME280_humidity;BME280_pressure;Samples;Min_cycle;Max_cycle;Signal;HPM_P1;HPM_P2
2022/11/03 00:02:53;;;;;;;19.67;11.15;;;;;;;13.86;88.96;99855.40;4189937;83;28462;-78
2022/11/03 00:09:00;;;;;;;20.23;10.85;;;;;;;13.86;88.96;99851.89;4134972;84;28879;-78
2022/11/03 00:15:02;;;;;;;25.57;11.70;;;;;;;13.77;89.28;99856.27;4209614;83;28519;-77
2022/11/03 00:21:07;;;;;;;20.80;11.03;;;;;;;13.74;89.94;99859.97;4208383;83;28456;-78
2022/11/03 00:27:08;;;;;;;22.50;11.03;;;;;;;13.78;90.77;99868.73;4204877;83;28470;-79
2022/11/03 00:33:09;;;;;;;20.27;11.48;;;;;;;14.10;89.55;99866.78;4202841;83;28505;-77
2022/11/03 00:39:11;;;;;;;25.75;12.18;;;;;;;14.08;89.47;99859.72;4188064;83;28486;-77
2022/11/03 00:45:13;;;;;;;22.45;11.35;;;;;;;13.86;90.37;99860.80;4214886;83;28483;-77
2022/11/03 00:51:24;;;;;;;23.38;11.28;;;;;;;13.67;91.42;99860.07;4240515;82;28460;-78
2022/11/03 00:57:26;;;;;;;23.07;11.55;;;;;;;13.55;91.69;99864.63;4135103;84;28455;-79
2022/11/03 01:03:27;;;;;;;25.90;11.48;;;;;;;13.46;91.93;99860.05;4224169;83;28445;-79
2022/11/03 01:09:38;;;;;;;25.17;12.10;;;;;;;13.25;92.55;99863.02;4259228;81;28487;-80
2022/11/03 01:15:39;;;;;;;21.62;11.85;;;;;;;13.14;93.48;99869.70;4273443;82;28463;-79
2022/11/03 01:21:45;;;;;;;23.70;12.07;;;;;;;13.12;93.92;99867.26;4257050;82;28530;-79
2022/11/03 01:27:46;;;;;;;24.23;12.10;;;;;;;13.06;94.04;99867.61;4262775;81;28447;-80
2022/11/03 01:33:51;;;;;;;27.52;12.25;;;;;;;13.06;94.91;99874.90;4253372;81;28588;-81
2022/11/03 01:39:52;;;;;;;24.95;12.28;;;;;;;13.02;94.62;99877.22;4152138;83;28446;-80
2022/11/03 01:46:26;;;;;;;26.48;12.85;;;;;;;13.07;94.23;99877.89;4262536;81;28471;-80
2022/11/03 01:52:35;;;;;;;26.05;12.37;;;;;;;12.85;96.13;99880.23;4282576;81;28490;-81
2022/11/03 01:58:41;;;;;;;25.30;12.28;;;;;;;12.56;95.38;99874.00;4204591;83;28508;-81
2022/11/03 02:04:42;;;;;;;22.02;11.65;;;;;;;12.55;95.31;99865.11;4203876;83;28464;-78
2022/11/03 02:10:46;;;;;;;23.12;10.78;;;;;;;12.21;93.69;99862.44;4215967;83;28466;-78
2022/11/03 02:16:52;;;;;;;24.23;12.30;;;;;;;12.09;94.29;99871.75;4221495;83;28453;-78
2022/11/03 02:23:22;;;;;;;29.20;13.50;;;;;;;12.09;98.36;99866.36;4257044;82;28484;-79
2022/11/03 02:29:23;;;;;;;26.97;11.95;;;;;;;12.12;96.51;99872.65;4225717;83;28539;-79
2022/11/03 02:35:36;;;;;;;25.35;12.25;;;;;;;12.08;96.64;99871.45;4183789;85;28472;-78
2022/11/03 02:41:38;;;;;;;24.20;12.28;;;;;;;11.89;94.47;99874.05;4210274;82;28502;-79
2022/11/03 02:47:41;;;;;;;22.90;12.10;;;;;;;11.84;94.46;99879.29;4228837;82;28539;-79
2022/11/03 02:53:57;;;;;;;22.22;11.65;;;;;;;11.71;92.13;99874.31;4252644;81;28436;-78
2022/11/03 03:00:05;;;;;;;23.53;11.57;;;;;;;11.50;92.19;99884.89;4204264;82;28505;-82
2022/11/03 03:06:15;;;;;;;22.87;11.00;;;;;;;11.35;93.54;99891.91;4169064;85;28511;-77
2022/11/03 03:12:19;;;;;;;21.87;10.78;;;;;;;11.30;93.46;99883.13;4202311;82;28453;-76
2022/11/03 03:18:28;;;;;;;23.87;11.15;;;;;;;11.29;91.02;99886.03;4228960;82;28531;-79
2022/11/03 03:24:41;;;;;;;23.87;11.95;;;;;;;11.38;92.46;99887.97;4210107;82;28535;-80
2022/11/03 03:30:43;;;;;;;23.07;11.15;;;;;;;11.30;92.42;99890.41;4211139;82;28448;-80
2022/11/03 03:36:47;;;;;;;19.40;10.50;;;;;;;11.50;90.79;99894.31;4220276;82;28611;-80
2022/11/03 05:01:03;;;;;;;22.13;10.65;;;;;;;10.53;87.34;99860.16;3238474;109;28520;-74
2022/11/03 05:07:16;;;;;;;22.17;11.12;;;;;;;10.32;89.85;99872.77;3479525;99;28495;-75
2022/11/03 05:13:26;;;;;;;19.45;9.90;;;;;;;10.08;91.33;99872.89;3944327;84;28537;-76
2022/11/03 05:19:35;;;;;;;16.27;9.20;;;;;;;10.14;89.83;99864.83;4076709;86;28510;-77
2022/11/03 05:25:44;;;;;;;18.30;9.18;;;;;;;10.01;88.57;99871.02;4130822;84;28486;-76
2022/11/03 05:31:49;;;;;;;18.77;9.90;;;;;;;9.74;91.23;99874.22;4213788;83;28512;-78
2022/11/03 05:37:51;;;;;;;17.50;9.27;;;;;;;9.82;92.95;99873.19;4250065;81;28527;-79
2022/11/03 05:44:01;;;;;;;15.78;9.78;;;;;;;9.71;90.00;99864.70;4305701;81;28487;-77
2022/11/03 05:50:23;;;;;;;20.37;9.50;;;;;;;9.87;88.97;99870.19;4162616;82;28443;-78
2022/11/03 05:56:27;;;;;;;21.95;10.75;;;;;;;9.80;88.99;99870.72;4190833;83;28476;-77
2022/11/03 06:02:41;;;;;;;20.97;10.38;;;;;;;9.89;92.51;99867.30;4284620;81;28509;-78
2022/11/03 06:08:43;;;;;;;18.67;9.55;;;;;;;9.99;90.27;99871.75;4300353;82;28481;-83
2022/11/03 06:14:45;;;;;;;20.57;10.53;;;;;;;9.85;91.14;99871.45;4120138;83;28482;-86
2022/11/03 06:20:55;;;;;;;21.68;10.05;;;;;;;10.14;92.02;99871.55;4153702;83;28477;-85
2022/11/03 06:26:57;;;;;;;19.52;10.32;;;;;;;10.09;92.36;99870.52;4288281;81;28496;-85
2022/11/03 06:33:23;;;;;;;21.95;10.98;;;;;;;10.29;91.96;99878.55;4289451;81;28538;-88
2022/11/03 06:39:25;;;;;;;22.00;11.60;;;;;;;10.40;92.62;99879.78;4288229;81;28494;-87
2022/11/03 06:45:29;;;;;;;20.20;11.28;;;;;;;10.54;92.11;99886.00;4266400;81;28525;-87
2022/11/03 06:51:30;;;;;;;28.25;12.43;;;;;;;10.86;96.27;99882.09;4294094;81;28584;-85
2022/11/03 06:57:36;;;;;;;24.95;12.65;;;;;;;11.00;95.72;99886.37;4206776;83;28576;-85
2022/11/03 07:03:38;;;;;;;25.08;12.73;;;;;;;11.11;97.08;99886.23;4278569;82;28518;-86
2022/11/03 07:09:39;;;;;;;25.43;11.80;;;;;;;11.39;98.15;99887.73;4291631;81;28457;-90
2022/11/03 07:15:42;;;;;;;24.05;12.50;;;;;;;11.57;97.91;99884.84;4311409;80;28504;-89
2022/11/03 07:21:47;;;;;;;23.50;12.50;;;;;;;11.85;97.53;99884.44;4286068;81;28552;-89
2022/11/03 07:27:53;;;;;;;28.17;12.43;;;;;;;12.05;96.61;99874.59;4298626;80;28527;-88
2022/11/03 07:33:58;;;;;;;22.60;11.57;;;;;;;12.10;98.07;99866.16;4287268;81;28518;-88
2022/11/03 07:40:00;;;;;;;24.55;12.45;;;;;;;12.26;99.13;99854.48;4299880;81;43967;-89
2022/11/03 07:46:04;;;;;;;24.72;11.95;;;;;;;12.45;98.71;99858.56;4190031;83;28534;-86
2022/11/03 07:52:10;;;;;;;24.70;11.97;;;;;;;12.63;98.71;99846.95;4275415;82;28537;-77
2022/11/03 07:58:23;;;;;;;25.97;11.40;;;;;;;12.81;98.50;99836.70;4257046;81;28530;-77
2022/11/03 08:04:29;;;;;;;24.00;10.93;;;;;;;13.00;96.28;99830.75;4282572;82;28519;-77
2022/11/03 08:10:30;;;;;;;21.60;11.08;;;;;;;13.24;95.83;99818.17;4265777;82;28506;-77
2022/11/03 08:16:32;;;;;;;22.35;10.80;;;;;;;13.34;96.16;99805.99;4283355;82;28624;-77
2022/11/03 08:22:47;;;;;;;20.97;10.50;;;;;;;13.42;96.54;99790.78;4254514;82;28534;-77
2022/11/03 08:28:49;;;;;;;22.07;9.85;;;;;;;13.68;95.60;99780.65;4283422;82;28530;-78
2022/11/03 08:34:50;;;;;;;17.77;8.18;;;;;;;13.73;93.98;99781.30;4283332;82;28620;-77
2022/11/03 08:40:52;;;;;;;17.02;7.90;;;;;;;13.97;94.62;99770.49;4269411;81;28572;-78
2022/11/03 08:46:54;;;;;;;16.00;6.83;;;;;;;14.18;92.06;99764.48;4267854;82;28525;-78
2022/11/03 08:52:55;;;;;;;16.37;6.50;;;;;;;14.33;90.08;99748.30;4283728;82;28562;-77
2022/11/03 08:58:59;;;;;;;15.78;5.95;;;;;;;14.53;88.75;99750.59;4276594;82;28494;-77
2022/11/03 09:05:00;;;;;;;13.00;6.03;;;;;;;14.74;86.67;99738.33;4283542;82;28564;-77
2022/11/03 09:11:01;;;;;;;13.88;5.40;;;;;;;14.90;83.25;99741.30;4283441;82;28502;-79
2022/11/03 09:17:03;;;;;;;12.18;5.87;;;;;;;15.00;82.43;99744.20;4285075;82;28489;-76
2022/11/03 09:23:06;;;;;;;12.85;4.83;;;;;;;15.05;80.68;99736.19;4216102;83;28536;-76
2022/11/03 09:29:07;;;;;;;11.05;4.87;;;;;;;15.18;78.81;99733.67;4282199;82;28515;-78
2022/11/03 09:35:09;;;;;;;8.58;4.83;;;;;;;15.21;77.52;99724.25;4215251;83;28489;-78
2022/11/03 09:41:16;;;;;;;9.38;2.87;;;;;;;15.48;75.36;99712.77;4209221;82;28511;-76
2022/11/03 09:47:34;;;;;;;11.08;3.02;;;;;;;15.40;73.30;99710.47;4220592;82;28499;-79
2022/11/03 09:53:35;;;;;;;9.98;2.60;;;;;;;15.53;68.95;99697.13;4226322;82;28489;-77
2022/11/03 09:59:41;;;;;;;11.65;3.40;;;;;;;15.95;69.45;99689.05;4226936;82;28530;-77
2022/11/03 10:05:44;;;;;;;13.22;5.65;;;;;;;16.02;69.15;99676.14;4238003;83;28533;-77
2022/11/03 10:11:51;;;;;;;15.85;6.75;;;;;;;15.80;69.59;99678.27;4238392;82;28522;-79
2022/11/03 10:17:53;;;;;;;11.78;5.20;;;;;;;16.07;70.52;99661.27;4161687;83;28492;-77
2022/11/03 10:23:55;;;;;;;14.13;6.12;;;;;;;16.05;68.89;99658.00;4165344;84;28490;-77
2022/11/03 10:30:10;;;;;;;16.73;6.28;;;;;;;16.06;69.39;99650.70;4197813;83;28508;-77
2022/11/03 10:36:20;;;;;;;11.12;3.83;;;;;;;16.24;69.10;99648.19;4169942;83;28540;-77
2022/11/03 10:42:29;;;;;;;10.88;4.72;;;;;;;16.55;66.58;99637.66;4181914;84;28533;-77
2022/11/03 10:48:31;;;;;;;9.00;3.58;;;;;;;16.51;66.50;99632.48;4183585;83;28510;-76
2022/11/03 10:54:35;;;;;;;11.22;3.45;;;;;;;16.52;64.77;99628.69;4139235;84;28488;-78
2022/11/03 11:00:38;;;;;;;7.78;2.35;;;;;;;17.09;64.39;99614.26;4245170;82;28504;-77
2022/11/03 11:06:40;;;;;;;8.45;2.42;;;;;;;17.19;63.13;99595.31;4199932;83;28492;-76
2022/11/03 11:13:14;;;;;;;6.60;2.22;;;;;;;17.20;61.66;99573.05;4184405;83;28501;-78
2022/11/03 11:19:15;;;;;;;7.78;2.50;;;;;;;17.21;60.05;99567.34;4168319;83;28466;-79
2022/11/03 11:25:18;;;;;;;6.67;2.80;;;;;;;17.32;60.57;99556.00;4146993;84;28492;-77
2022/11/03 11:31:55;;;;;;;6.78;2.50;;;;;;;17.06;58.49;99550.39;4147433;84;28530;-77
2022/11/03 11:38:19;;;;;;;8.20;2.35;;;;;;;17.09;57.93;99545.82;4251439;82;28522;-77
2022/11/03 11:45:01;;;;;;;6.55;2.20;;;;;;;17.39;59.06;99528.58;4263010;82;28467;-78
2022/11/03 11:51:03;;;;;;;6.87;2.40;;;;;;;17.33;57.92;99525.02;4284509;82;28545;-76
2022/11/03 11:57:16;;;;;;;6.92;2.98;;;;;;;16.79;58.30;99513.27;4263344;81;28576;-77
2022/11/03 12:03:23;;;;;;;10.90;2.42;;;;;;;16.69;59.61;99492.83;4284178;81;28579;-77
2022/11/03 12:09:27;;;;;;;5.65;2.65;;;;;;;17.24;59.22;99477.70;4281665;82;28534;-77
2022/11/03 12:15:54;;;;;;;5.80;2.52;;;;;;;16.87;58.34;99464.44;4248048;82;28586;-77
2022/11/03 12:21:56;;;;;;;7.53;2.47;;;;;;;17.42;59.10;99460.92;4268717;81;28551;-76
2022/11/03 12:27:57;;;;;;;5.85;2.05;;;;;;;17.24;58.46;99447.28;4229283;82;28476;-77
2022/11/03 12:33:58;;;;;;;7.65;2.77;;;;;;;17.44;58.05;99432.66;4279583;82;28523;-77
2022/11/03 12:39:59;;;;;;;7.17;2.42;;;;;;;17.30;57.85;99428.27;4243047;81;28590;-77
2022/11/03 12:46:01;;;;;;;7.40;2.40;;;;;;;17.26;58.20;99413.86;4297086;81;28459;-77
2022/11/03 12:52:05;;;;;;;6.42;2.60;;;;;;;17.48;58.55;99407.39;4273909;81;28537;-77
2022/11/03 12:58:06;;;;;;;5.87;2.60;;;;;;;17.39;58.06;99404.39;4296928;81;28596;-77
2022/11/03 13:04:07;;;;;;;8.20;2.50;;;;;;;17.55;57.26;99398.98;4297609;81;28480;-77
2022/11/03 13:10:09;;;;;;;7.65;2.87;;;;;;;17.50;57.01;99392.19;4282603;81;28514;-78
2022/11/03 13:16:10;;;;;;;7.65;3.05;;;;;;;17.59;57.10;99385.67;4301536;81;28601;-78
2022/11/03 13:22:11;;;;;;;9.03;3.12;;;;;;;17.62;57.05;99377.80;4289641;82;28520;-78
2022/11/03 13:28:13;;;;;;;8.18;2.98;;;;;;;17.59;57.67;99371.52;4297831;81;28521;-78
2022/11/03 13:34:14;;;;;;;6.80;2.35;;;;;;;17.73;56.01;99361.50;4267652;81;28547;-78
2022/11/03 13:40:16;;;;;;;6.15;2.60;;;;;;;17.84;55.99;99358.49;4284533;81;28467;-78
2022/11/03 13:46:17;;;;;;;10.72;3.72;;;;;;;18.10;56.22;99355.81;4283299;82;28584;-79
2022/11/03 13:52:19;;;;;;;7.60;2.92;;;;;;;18.06;55.97;99343.03;4245972;82;28495;-78
2022/11/03 13:58:20;;;;;;;8.78;3.75;;;;;;;17.64;56.71;99336.20;4280309;81;28486;-78
2022/11/03 14:04:21;;;;;;;8.95;3.45;;;;;;;17.40;57.53;99321.78;4284020;81;28502;-78
2022/11/03 14:10:23;;;;;;;6.37;3.10;;;;;;;17.32;57.72;99326.38;4284223;81;28545;-78
2022/11/03 14:16:24;;;;;;;9.58;3.50;;;;;;;17.17;58.32;99316.81;4265728;81;28490;-78
2022/11/03 14:22:29;;;;;;;8.00;3.05;;;;;;;16.85;58.44;99311.82;4287539;81;28588;-78
2022/11/03 14:28:34;;;;;;;7.60;3.00;;;;;;;16.70;58.36;99305.79;4283686;81;28467;-78
2022/11/03 14:34:36;;;;;;;9.93;3.30;;;;;;;16.61;58.33;99294.63;4220006;82;28458;-78
2022/11/03 14:47:00;;;;;;;8.88;2.90;;;;;;;16.50;58.53;99293.76;4222135;83;28539;-78
2022/11/03 14:53:01;;;;;;;10.20;3.62;;;;;;;16.45;58.83;99287.77;4223214;83;28482;-78
2022/11/03 14:59:02;;;;;;;10.32;3.30;;;;;;;16.35;59.11;99275.50;4205262;83;28536;-78
2022/11/03 15:05:04;;;;;;;9.08;3.70;;;;;;;16.22;59.17;99267.84;4219489;83;28572;-78
2022/11/03 15:11:08;;;;;;;11.70;3.80;;;;;;;16.03;59.78;99265.00;4223148;83;28502;-78
2022/11/03 15:17:10;;;;;;;9.25;3.27;;;;;;;15.85;60.30;99258.64;4207487;83;28505;-78
2022/11/03 15:23:12;;;;;;;7.90;3.10;;;;;;;15.73;60.45;99264.24;4221890;83;28517;-78
2022/11/03 15:29:22;;;;;;;12.47;3.47;;;;;;;15.61;60.85;99256.28;4221911;83;28593;-78
2022/11/03 15:35:19;;;;;;;7.30;3.35;;;;;;;15.48;61.17;99249.42;4204610;82;28604;-77
2022/11/03 15:41:21;;;;;;;11.38;3.40;;;;;;;15.29;61.95;99249.80;4222527;83;28493;-78
2022/11/03 15:47:22;;;;;;;11.18;3.40;;;;;;;15.37;61.77;99243.09;4208845;83;28515;-78
2022/11/03 15:53:23;;;;;;;15.45;3.92;;;;;;;15.17;62.60;99240.48;4219063;83;28595;-77
2022/11/03 15:59:27;;;;;;;11.88;3.87;;;;;;;15.25;62.80;99246.52;4201831;83;28476;-78
2022/11/03 16:05:28;;;;;;;11.05;4.20;;;;;;;14.96;63.53;99240.83;4220351;83;28529;-78
2022/11/03 16:11:31;;;;;;;13.93;5.05;;;;;;;14.97;63.84;99237.57;4222628;83;28622;-77
2022/11/03 16:17:33;;;;;;;9.70;4.70;;;;;;;14.94;64.30;99223.20;4223078;83;28505;-78
2022/11/03 16:23:34;;;;;;;13.38;5.30;;;;;;;14.61;64.79;99216.33;4223234;83;28540;-86
2022/11/03 16:29:35;;;;;;;12.30;5.80;;;;;;;14.88;64.31;99208.80;4213636;83;28478;-85
2022/11/03 16:35:36;;;;;;;13.78;5.72;;;;;;;15.17;63.50;99201.20;4169199;84;28484;-79
2022/11/03 16:41:38;;;;;;;12.75;5.83;;;;;;;15.30;63.45;99204.56;4162572;84;28493;-77
2022/11/03 16:47:39;;;;;;;14.33;5.65;;;;;;;15.71;62.44;99204.86;4121108;84;28571;-78
2022/11/03 16:53:40;;;;;;;14.87;6.37;;;;;;;15.48;62.66;99199.30;4140804;84;28498;-77
2022/11/03 16:59:41;;;;;;;14.05;6.83;;;;;;;15.22;63.53;99188.80;4139460;84;28551;-78
2022/11/03 17:05:43;;;;;;;13.08;5.97;;;;;;;15.22;63.76;99183.39;4208906;83;28594;-77
2022/11/03 17:11:44;;;;;;;13.65;6.20;;;;;;;15.53;63.08;99184.98;4212091;83;28560;-77
2022/11/03 17:17:47;;;;;;;15.50;7.12;;;;;;;15.52;62.78;99184.15;4208688;83;28539;-77
2022/11/03 17:23:48;;;;;;;18.35;7.85;;;;;;;15.33;63.57;99171.00;4213704;83;28491;-77
2022/11/03 17:29:55;;;;;;;16.50;8.08;;;;;;;14.99;64.25;99155.55;4213592;83;28521;-77
2022/11/03 17:35:56;;;;;;;;;;;;;;;14.49;65.39;99138.03;4220216;83;28454;-77
2022/11/03 17:42:14;;;;;;;16.93;8.05;;;;;;;14.70;65.17;99124.70;4239610;82;20513;-76
2022/11/03 17:48:16;;;;;;;21.17;9.35;;;;;;;14.24;66.45;99119.63;4271997;81;28482;-77
2022/11/03 17:54:17;;;;;;;22.17;9.35;;;;;;;14.19;67.16;99111.73;4268500;81;28560;-79
2022/11/03 18:00:20;;;;;;;20.27;10.40;;;;;;;14.07;67.59;99109.18;4280532;81;28490;-77
2022/11/03 18:06:21;;;;;;;21.75;9.38;;;;;;;13.62;68.81;99108.34;4277018;81;28524;-77
2022/11/03 18:18:47;;;;;;;24.12;10.23;;;;;;;13.83;68.40;99103.73;4242556;81;28585;-77
2022/11/03 18:24:53;;;;;;;24.55;10.58;;;;;;;14.00;67.94;99100.44;4264112;81;28506;-78
2022/11/03 18:30:55;;;;;;;21.80;10.30;;;;;;;14.48;66.47;99102.03;4315652;80;28552;-79
2022/11/03 18:36:59;;;;;;;22.85;10.48;;;;;;;14.63;65.74;99095.95;4273088;80;28444;-86
2022/11/03 18:43:00;;;;;;;24.67;10.63;;;;;;;14.70;65.69;99089.53;4268751;81;28548;-86
2022/11/03 18:49:05;;;;;;;23.80;10.08;;;;;;;14.44;66.18;99075.75;4264790;82;28435;-86
2022/11/03 18:55:11;;;;;;;21.68;9.18;;;;;;;14.30;65.98;99055.87;4266563;82;28486;-87
2022/11/03 19:01:21;;;;;;;22.23;10.03;;;;;;;14.31;65.75;99037.75;4270279;82;28489;-85
2022/11/03 19:07:29;;;;;;;22.40;10.50;;;;;;;14.41;65.11;99028.93;4274481;82;28535;-86
2022/11/03 19:13:38;;;;;;;22.07;9.60;;;;;;;14.36;65.50;99020.23;4245910;83;28536;-86
2022/11/03 19:19:43;;;;;;;22.55;10.15;;;;;;;14.37;65.88;99015.10;4274457;82;28546;-88
2022/11/03 19:25:46;;;;;;;22.22;11.00;;;;;;;14.15;66.23;99005.17;4248467;82;28465;-86
2022/11/03 19:31:48;;;;;;;26.23;11.97;;;;;;;14.31;65.79;98994.48;4158764;83;28535;-86
2022/11/03 19:38:03;;;;;;;20.70;10.00;;;;;;;13.99;67.25;98992.56;4325458;82;28472;-85
2022/11/03 19:44:10;;;;;;;;;;;;;;;14.28;66.62;98985.54;4209765;83;28567;-83
2022/11/03 19:50:20;;;;;;;28.20;12.47;;;;;;;14.38;66.48;98972.66;4188022;83;20721;-83
2022/11/03 19:56:21;;;;;;;31.55;14.35;;;;;;;14.52;66.17;98963.55;4163606;84;28511;-87
2022/11/03 20:02:23;;;;;;;28.02;13.20;;;;;;;14.88;65.53;98960.58;4300466;81;28558;-85
2022/11/03 20:08:28;;;;;;;26.40;12.70;;;;;;;14.70;65.75;98952.88;4302366;81;28498;-84
2022/11/03 20:14:44;;;;;;;26.07;12.30;;;;;;;14.30;67.04;98950.94;4252606;81;28517;-87
2022/11/03 20:20:58;;;;;;;27.67;12.17;;;;;;;13.73;69.20;98935.02;4303140;81;28512;-90
2022/11/03 20:27:05;;;;;;;23.77;11.73;;;;;;;14.05;68.41;98930.73;4254234;81;28451;-85
2022/11/03 20:33:15;;;;;;;28.95;12.93;;;;;;;14.00;68.94;98932.02;4265962;81;28558;-86
2022/11/03 20:39:23;;;;;;;24.32;11.93;;;;;;;13.90;70.17;98929.53;4216901;82;28540;-87
2022/11/03 20:45:31;;;;;;;28.92;12.70;;;;;;;13.84;69.49;98910.27;4262480;83;28603;-85
2022/11/03 20:51:44;;;;;;;28.30;12.85;;;;;;;13.97;69.77;98906.87;4230028;83;28504;-81
2022/11/03 20:57:46;;;;;;;31.42;13.08;;;;;;;13.73;71.27;98900.44;4269428;82;28471;-82
2022/11/03 21:03:50;;;;;;;30.32;13.32;;;;;;;13.91;71.83;98896.55;4173003;83;28446;-85
2022/11/03 21:09:52;;;;;;;24.72;12.98;;;;;;;13.86;71.20;98894.61;4237252;83;28485;-82
2022/11/03 21:22:31;;;;;;;25.60;13.05;;;;;;;13.89;70.92;98880.58;4222160;83;28464;-80
2022/11/03 21:28:34;;;;;;;29.27;14.18;;;;;;;13.73;72.78;98865.31;4198159;83;28464;-81
2022/11/03 21:34:36;;;;;;;30.23;14.00;;;;;;;13.88;72.94;98855.98;4205137;83;28505;-82
2022/11/03 21:40:49;;;;;;;29.32;13.70;;;;;;;13.77;73.96;98848.86;4184623;83;28493;-82
2022/11/03 21:46:50;;;;;;;28.50;12.33;;;;;;;13.86;73.08;98847.32;4232109;82;28468;-82
2022/11/03 21:52:51;;;;;;;27.07;12.80;;;;;;;13.36;75.17;98847.92;4217696;83;28458;-80
2022/11/03 21:58:52;;;;;;;34.90;13.98;;;;;;;13.48;76.38;98834.27;4215034;83;28466;-81
2022/11/03 22:04:55;;;;;;;27.48;14.20;;;;;;;13.27;77.25;98830.53;4198317;83;28507;-81
2022/11/03 22:11:21;;;;;;;29.57;14.05;;;;;;;13.81;75.59;98822.97;4217494;83;28449;-81
2022/11/03 22:17:22;;;;;;;26.75;13.18;;;;;;;13.64;76.04;98823.91;4156393;84;28540;-81
2022/11/03 22:48:48;;;;;;;28.07;14.38;;;;;;;13.32;79.15;98780.11;4215370;84;28531;-83
2022/11/03 22:54:53;;;;;;;30.55;14.07;;;;;;;13.19;80.83;98781.87;4206530;84;28548;-83
2022/11/03 23:00:53;;;;;;;29.55;13.62;;;;;;;12.99;82.88;98764.40;4224953;82;28520;-84
2022/11/03 23:06:54;;;;;;;26.40;13.85;;;;;;;12.94;83.95;98756.23;4212895;83;28515;-83
2022/11/03 23:12:57;;;;;;;26.62;12.23;;;;;;;13.31;81.61;98746.60;4178523;83;28466;-83
2022/11/03 23:25:19;;;;;;;24.63;13.43;;;;;;;12.84;84.79;98725.92;4297372;81;28458;-83
2022/11/03 23:31:20;;;;;;;24.45;12.45;;;;;;;12.80;84.98;98720.73;4274634;82;28513;-82
2022/11/03 23:37:21;;;;;;;26.87;12.55;;;;;;;12.74;86.41;98706.94;4298598;81;28474;-86
2022/11/03 23:43:23;;;;;;;25.80;13.08;;;;;;;12.96;84.98;98698.25;4302400;82;28486;-84
2022/11/03 23:49:24;;;;;;;26.35;12.95;;;;;;;12.86;85.25;98687.36;4292191;81;28505;-84
2022/11/03 23:58:17;;;;;;;31.62;15.53;;;;;;;12.82;85.55;98686.25;4147883;83;28572;-83
